createdAt,value
2022-11-02T00:00:14.177Z,48.83
2022-11-02T00:01:14.236Z,49.41
2022-11-02T00:02:14.232Z,49.50
2022-11-02T00:03:14.276Z,49.47
2022-11-02T00:04:14.142Z,50.00
2022-11-02T00:05:14.150Z,50.19
2022-11-02T00:06:14.193Z,50.28
2022-11-02T00:07:14.152Z,50.71
2022-11-02T00:08:14.103Z,50.99
2022-11-02T00:09:14.088Z,51.02
2022-11-02T00:10:14.086Z,51.17
2022-11-02T00:11:14.112Z,51.72
2022-11-02T00:12:14.120Z,51.88
2022-11-02T00:13:14.043Z,52.10
2022-11-02T00:14:14.091Z,52.63
2022-11-02T00:15:14.070Z,52.87
2022-11-02T00:16:14.062Z,52.67
2022-11-02T00:17:14.056Z,52.67
2022-11-02T00:18:14.012Z,52.63
2022-11-02T00:19:14.097Z,52.63
2022-11-02T00:20:13.974Z,52.33
2022-11-02T00:21:15.929Z,51.81
2022-11-02T00:22:13.967Z,51.94
2022-11-02T00:23:14.093Z,51.78
2022-11-02T00:24:14.027Z,51.55
2022-11-02T00:25:13.934Z,51.75
2022-11-02T00:26:13.939Z,51.75
2022-11-02T00:27:14.128Z,51.40
2022-11-02T00:28:14.135Z,51.33
2022-11-02T00:29:13.948Z,51.62
2022-11-02T00:30:13.918Z,51.46
2022-11-02T00:31:13.887Z,51.72
2022-11-02T00:32:13.856Z,51.81
2022-11-02T00:33:13.914Z,51.81
2022-11-02T00:34:13.894Z,52.01
2022-11-02T00:35:13.838Z,51.97
2022-11-02T00:36:13.983Z,52.20
2022-11-02T00:37:14.392Z,52.60
2022-11-02T00:38:13.859Z,52.27
2022-11-02T00:39:13.874Z,52.76
2022-11-02T00:40:13.836Z,52.97
2022-11-02T00:41:13.959Z,53.31
2022-11-02T00:42:13.762Z,54.03
2022-11-02T00:43:13.765Z,54.03
2022-11-02T00:44:13.755Z,54.57
2022-11-02T00:45:13.757Z,55.22
2022-11-02T00:46:13.760Z,55.55
2022-11-02T00:47:13.731Z,56.38
2022-11-02T00:48:13.818Z,56.61
2022-11-02T00:49:13.702Z,57.47
2022-11-02T00:50:13.676Z,57.95
2022-11-02T00:51:13.667Z,58.69
2022-11-02T00:52:13.740Z,59.28
2022-11-02T00:53:13.750Z,60.00
2022-11-02T00:54:13.747Z,60.35
2022-11-02T00:55:13.630Z,60.97
2022-11-02T00:56:13.676Z,61.42
2022-11-02T00:57:13.613Z,62.06
2022-11-02T00:58:13.618Z,62.39
2022-11-02T00:59:13.689Z,62.67
2022-11-02T01:00:13.586Z,63.24
2022-11-02T01:01:13.790Z,63.49
2022-11-02T01:02:13.777Z,63.97
2022-11-02T01:03:13.653Z,64.12
2022-11-02T01:04:13.559Z,64.67
2022-11-02T01:05:13.572Z,64.97
2022-11-02T01:06:13.536Z,65.69
2022-11-02T01:07:13.511Z,65.95
2022-11-02T01:08:13.583Z,66.91
2022-11-02T01:09:13.549Z,67.56
2022-11-02T01:10:13.601Z,68.11
2022-11-02T01:11:13.567Z,68.34
2022-11-02T01:12:13.471Z,68.51
2022-11-02T01:13:13.459Z,68.68
2022-11-02T01:14:13.455Z,68.51
2022-11-02T01:15:13.587Z,68.06
2022-11-02T01:16:13.431Z,67.62
2022-11-02T01:17:13.439Z,67.34
2022-11-02T01:18:13.403Z,67.07
2022-11-02T01:19:13.455Z,66.96
2022-11-02T01:20:13.379Z,66.53
2022-11-02T01:21:13.476Z,66.27
2022-11-02T01:22:13.513Z,66.53
2022-11-02T01:23:13.390Z,66.27
2022-11-02T01:24:13.528Z,66.22
2022-11-02T01:25:13.465Z,66.32
2022-11-02T01:26:13.342Z,66.06
2022-11-02T01:27:13.443Z,66.11
2022-11-02T01:28:13.360Z,65.95
2022-11-02T01:29:13.332Z,65.95
2022-11-02T01:30:13.337Z,66.53
2022-11-02T01:31:13.294Z,66.75
2022-11-02T01:32:13.455Z,67.18
2022-11-02T01:33:13.257Z,68.28
2022-11-02T01:34:13.280Z,68.68
2022-11-02T01:35:13.332Z,69.48
2022-11-02T01:36:13.289Z,70.07
2022-11-02T01:37:13.238Z,71.08
2022-11-02T01:38:13.279Z,72.13
2022-11-02T01:39:13.593Z,73.08
2022-11-02T01:40:13.197Z,74.13
2022-11-02T01:41:13.250Z,74.19
2022-11-02T01:42:13.167Z,74.39
2022-11-02T01:43:13.321Z,75.41
2022-11-02T01:44:13.176Z,76.03
2022-11-02T01:45:13.293Z,76.73
2022-11-02T01:46:13.149Z,76.59
2022-11-02T01:47:13.210Z,77.23
2022-11-02T01:48:13.120Z,77.08
2022-11-02T01:49:13.188Z,78.39
2022-11-02T01:50:13.095Z,78.61
2022-11-02T01:51:13.116Z,78.25
2022-11-02T01:52:13.154Z,78.47
2022-11-02T01:53:13.062Z,78.32
2022-11-02T01:54:13.046Z,77.59
2022-11-02T01:55:13.101Z,77.51
2022-11-02T01:56:13.150Z,76.45
2022-11-02T01:57:13.105Z,76.38
2022-11-02T01:58:13.022Z,75.07
2022-11-02T01:59:13.118Z,74.39
2022-11-02T02:00:13.069Z,74.59
2022-11-02T02:01:20.322Z,74.73
2022-11-02T02:02:13.139Z,75.68
2022-11-02T02:03:13.137Z,75.89
2022-11-02T02:04:12.953Z,76.38
2022-11-02T02:05:12.932Z,76.38
2022-11-02T02:06:12.976Z,76.66
2022-11-02T02:07:12.938Z,77.37
2022-11-02T02:08:13.021Z,78.32
2022-11-02T02:09:12.902Z,79.37
2022-11-02T02:10:12.898Z,80.75
2022-11-02T02:11:12.919Z,81.79
2022-11-02T02:12:12.860Z,83.01
2022-11-02T02:13:12.862Z,83.93
2022-11-02T02:14:12.906Z,85.31
2022-11-02T02:15:12.834Z,87.93
2022-11-02T02:16:12.888Z,90.81
2022-11-02T02:17:12.885Z,91.61
2022-11-02T02:18:12.818Z,93.68
2022-11-02T02:19:12.865Z,94.57
2022-11-02T02:20:12.808Z,95.99
2022-11-02T02:21:12.831Z,97.85
2022-11-02T02:22:12.879Z,96.94
2022-11-02T02:23:12.763Z,95.93
2022-11-02T02:24:12.806Z,95.73
2022-11-02T02:25:12.779Z,94.53
2022-11-02T02:26:12.844Z,92.94
2022-11-02T02:27:12.707Z,93.36
2022-11-02T02:28:12.703Z,90.91
2022-11-02T02:29:12.719Z,87.37
2022-11-02T02:30:12.681Z,85.93
2022-11-02T02:31:12.695Z,87.19
2022-11-02T02:32:12.725Z,87.56
2022-11-02T02:33:12.711Z,89.64
2022-11-02T02:34:12.692Z,86.38
2022-11-02T02:35:12.640Z,84.96
2022-11-02T02:36:12.640Z,81.55
2022-11-02T02:37:12.723Z,79.59
2022-11-02T02:38:12.624Z,79.98
2022-11-02T02:39:12.595Z,79.21
2022-11-02T02:40:12.680Z,76.66
2022-11-02T02:41:12.669Z,74.73
2022-11-02T02:42:12.590Z,71.70
2022-11-02T02:43:12.605Z,70.18
2022-11-02T02:44:12.588Z,68.68
2022-11-02T02:45:12.529Z,67.40
2022-11-02T02:46:12.578Z,67.07
2022-11-02T02:47:12.518Z,66.22
2022-11-02T02:48:12.507Z,65.18
2022-11-02T02:49:12.559Z,64.22
2022-11-02T02:50:12.540Z,62.67
2022-11-02T02:51:12.499Z,61.83
2022-11-02T02:52:12.482Z,60.62
2022-11-02T02:53:12.529Z,59.87
2022-11-02T02:54:12.444Z,59.79
2022-11-02T02:55:12.471Z,59.15
2022-11-02T02:56:12.515Z,59.28
2022-11-02T02:57:12.460Z,58.98
2022-11-02T02:58:12.421Z,59.49
2022-11-02T02:59:12.401Z,59.02
2022-11-02T03:00:12.404Z,58.65
2022-11-02T03:01:12.582Z,58.40
2022-11-02T03:02:12.543Z,58.56
2022-11-02T03:03:12.424Z,58.40
2022-11-02T03:04:12.357Z,59.62
2022-11-02T03:05:12.340Z,60.57
2022-11-02T03:06:12.366Z,59.83
2022-11-02T03:07:12.342Z,59.70
2022-11-02T03:08:12.359Z,59.02
2022-11-02T03:09:12.298Z,58.52
2022-11-02T03:10:12.324Z,57.47
2022-11-02T03:11:12.283Z,57.04
2022-11-02T03:12:12.407Z,56.19
2022-11-02T03:13:12.255Z,56.15
2022-11-02T03:14:12.364Z,56.11
2022-11-02T03:15:12.281Z,56.26
2022-11-02T03:16:12.351Z,55.78
2022-11-02T03:17:12.224Z,55.96
2022-11-02T03:18:12.209Z,55.44
2022-11-02T03:19:12.257Z,55.22
2022-11-02T03:20:12.222Z,54.75
2022-11-02T03:21:12.185Z,55.15
2022-11-02T03:22:12.170Z,56.00
2022-11-02T03:23:12.173Z,57.04
2022-11-02T03:24:12.251Z,57.75
2022-11-02T03:25:12.232Z,58.07
2022-11-02T03:26:12.196Z,58.65
2022-11-02T03:27:12.134Z,57.87
2022-11-02T03:28:12.109Z,57.47
2022-11-02T03:29:12.212Z,57.47
2022-11-02T03:30:12.143Z,57.00
2022-11-02T03:31:12.077Z,57.55
2022-11-02T03:32:12.135Z,57.71
2022-11-02T03:33:12.101Z,57.47
2022-11-02T03:34:12.055Z,57.31
2022-11-02T03:35:12.088Z,56.84
2022-11-02T03:36:12.092Z,56.38
2022-11-02T03:37:12.074Z,56.38
2022-11-02T03:38:12.072Z,55.89
2022-11-02T03:39:12.069Z,56.15
2022-11-02T03:40:12.177Z,56.42
2022-11-02T03:41:11.995Z,56.30
2022-11-02T03:42:12.003Z,56.30
2022-11-02T03:43:12.017Z,56.08
2022-11-02T03:44:11.966Z,56.08
2022-11-02T03:45:11.934Z,56.15
2022-11-02T03:46:11.980Z,56.19
2022-11-02T03:47:11.938Z,56.80
2022-11-02T03:48:11.912Z,56.46
2022-11-02T03:49:11.942Z,56.53
2022-11-02T03:50:11.951Z,56.73
2022-11-02T03:51:11.888Z,56.57
2022-11-02T03:52:11.862Z,57.00
2022-11-02T03:53:11.944Z,57.55
2022-11-02T03:54:11.851Z,57.71
2022-11-02T03:55:11.843Z,57.91
2022-11-02T03:56:11.855Z,58.11
2022-11-02T03:57:11.825Z,57.95
2022-11-02T03:58:11.865Z,57.87
2022-11-02T03:59:11.807Z,57.67
2022-11-02T04:00:11.798Z,57.19
2022-11-02T04:01:11.822Z,57.08
2022-11-02T04:02:11.948Z,57.00
2022-11-02T04:03:11.832Z,56.80
2022-11-02T04:04:11.927Z,56.57
2022-11-02T04:05:11.749Z,56.57
2022-11-02T04:06:11.736Z,56.38
2022-11-02T04:07:12.089Z,56.26
2022-11-02T04:08:11.710Z,56.00
2022-11-02T04:09:11.798Z,55.89
2022-11-02T04:10:11.712Z,55.92
2022-11-02T04:11:11.782Z,56.00
2022-11-02T04:12:11.678Z,56.08
2022-11-02T04:13:11.664Z,55.85
2022-11-02T04:14:11.683Z,55.81
2022-11-02T04:15:11.705Z,56.23
2022-11-02T04:16:11.632Z,56.38
2022-11-02T04:17:11.632Z,56.61
2022-11-02T04:18:11.614Z,56.88
2022-11-02T04:19:11.688Z,57.23
2022-11-02T04:20:11.595Z,57.47
2022-11-02T04:21:11.592Z,57.87
2022-11-02T04:22:11.616Z,57.87
2022-11-02T04:23:11.692Z,58.07
2022-11-02T04:24:11.553Z,58.36
2022-11-02T04:25:11.630Z,58.48
2022-11-02T04:26:11.532Z,59.28
2022-11-02T04:27:12.356Z,59.28
2022-11-02T04:28:11.565Z,59.36
2022-11-02T04:29:11.513Z,59.57
2022-11-02T04:30:11.495Z,60.13
2022-11-02T04:31:11.507Z,60.75
2022-11-02T04:32:11.532Z,60.75
2022-11-02T04:33:11.483Z,60.75
2022-11-02T04:34:11.449Z,60.97
2022-11-02T04:35:11.456Z,61.15
2022-11-02T04:36:11.438Z,61.24
2022-11-02T04:37:11.440Z,60.57
2022-11-02T04:38:11.486Z,60.22
2022-11-02T04:39:11.445Z,59.87
2022-11-02T04:40:11.489Z,59.92
2022-11-02T04:41:11.450Z,60.09
2022-11-02T04:42:11.436Z,60.31
2022-11-02T04:43:11.364Z,59.66
2022-11-02T04:44:11.361Z,59.70
2022-11-02T04:45:11.374Z,59.83
2022-11-02T04:46:11.374Z,59.87
2022-11-02T04:47:11.385Z,59.62
2022-11-02T04:48:11.309Z,59.19
2022-11-02T04:49:11.383Z,58.94
2022-11-02T04:50:11.294Z,58.56
2022-11-02T04:51:11.290Z,58.52
2022-11-02T04:52:11.270Z,58.44
2022-11-02T04:53:11.319Z,58.24
2022-11-02T04:54:11.317Z,57.87
2022-11-02T04:55:11.255Z,57.67
2022-11-02T04:56:11.242Z,58.11
2022-11-02T04:57:11.276Z,58.81
2022-11-02T04:58:11.207Z,58.48
2022-11-02T04:59:11.209Z,58.77
2022-11-02T05:00:11.662Z,58.98
2022-11-02T05:01:11.248Z,59.62
2022-11-02T05:02:11.265Z,59.19
2022-11-02T05:03:12.508Z,59.32
2022-11-02T05:04:11.180Z,59.32
2022-11-02T05:05:11.178Z,59.66
2022-11-02T05:06:11.196Z,59.02
2022-11-02T05:07:11.132Z,58.90
2022-11-02T05:08:11.111Z,58.52
2022-11-02T05:09:11.104Z,58.90
2022-11-02T05:10:11.141Z,59.23
2022-11-02T05:11:11.345Z,59.44
2022-11-02T05:12:11.087Z,59.62
2022-11-02T05:13:11.069Z,59.32
2022-11-02T05:14:11.059Z,59.96
2022-11-02T05:15:11.063Z,60.04
2022-11-02T05:16:11.056Z,60.35
2022-11-02T05:17:11.089Z,60.18
2022-11-02T05:18:16.169Z,60.35
2022-11-02T05:19:11.273Z,61.10
2022-11-02T05:20:11.007Z,61.38
2022-11-02T05:21:10.998Z,62.29
2022-11-02T05:22:10.994Z,62.67
2022-11-02T05:23:11.039Z,62.96
2022-11-02T05:24:11.028Z,63.39
2022-11-02T05:25:10.950Z,63.53
2022-11-02T05:26:10.959Z,63.83
2022-11-02T05:27:10.991Z,64.17
2022-11-02T05:28:10.938Z,64.57
2022-11-02T05:29:10.961Z,64.42
2022-11-02T05:30:10.846Z,64.82
2022-11-02T05:31:10.951Z,64.52
2022-11-02T05:32:10.875Z,64.42
2022-11-02T05:33:10.882Z,63.58
2022-11-02T05:34:11.005Z,63.53
2022-11-02T05:35:10.845Z,63.78
2022-11-02T05:36:10.886Z,63.73
2022-11-02T05:37:10.819Z,63.39
2022-11-02T05:38:10.771Z,63.05
2022-11-02T05:39:10.808Z,62.39
2022-11-02T05:40:10.883Z,61.24
2022-11-02T05:41:10.735Z,61.19
2022-11-02T05:42:10.781Z,60.26
2022-11-02T05:43:10.750Z,59.11
2022-11-02T05:44:10.696Z,58.69
2022-11-02T05:45:10.777Z,58.24
2022-11-02T05:46:10.763Z,57.75
2022-11-02T05:47:11.098Z,58.20
2022-11-02T05:48:10.663Z,58.03
2022-11-02T05:49:10.781Z,57.75
2022-11-02T05:50:10.727Z,57.39
2022-11-02T05:51:10.673Z,57.43
2022-11-02T05:52:10.623Z,57.43
2022-11-02T05:53:10.793Z,57.12
2022-11-02T05:54:10.659Z,57.12
2022-11-02T05:55:10.599Z,56.92
2022-11-02T05:56:10.583Z,56.65
2022-11-02T05:57:10.607Z,56.57
2022-11-02T05:58:10.569Z,56.61
2022-11-02T05:59:10.561Z,56.42
2022-11-02T06:00:10.604Z,56.96
2022-11-02T06:01:10.599Z,56.65
2022-11-02T06:02:10.623Z,57.47
2022-11-02T06:03:10.572Z,57.51
2022-11-02T06:04:10.602Z,57.87
2022-11-02T06:05:10.535Z,57.71
2022-11-02T06:06:10.550Z,57.87
2022-11-02T06:07:10.540Z,57.55
2022-11-02T06:08:10.457Z,57.43
2022-11-02T06:09:10.462Z,56.88
2022-11-02T06:10:10.459Z,56.34
2022-11-02T06:11:10.500Z,55.89
2022-11-02T06:12:10.425Z,55.48
2022-11-02T06:13:10.571Z,55.37
2022-11-02T06:14:10.421Z,54.75
2022-11-02T06:15:10.403Z,54.42
2022-11-02T06:16:10.409Z,54.28
2022-11-02T06:17:10.451Z,54.07
2022-11-02T06:18:10.414Z,53.69
2022-11-02T06:19:10.449Z,53.14
2022-11-02T06:20:10.344Z,53.24
2022-11-02T06:21:10.353Z,53.07
2022-11-02T06:22:10.382Z,52.83
2022-11-02T06:23:10.345Z,53.10
2022-11-02T06:24:10.323Z,52.63
2022-11-02T06:25:10.305Z,52.53
2022-11-02T06:26:10.456Z,52.70
2022-11-02T06:27:10.324Z,52.43
2022-11-02T06:28:10.502Z,52.37
2022-11-02T06:29:10.424Z,52.24
2022-11-02T06:30:10.292Z,52.30
2022-11-02T06:31:10.240Z,52.53
2022-11-02T06:32:10.272Z,52.47
2022-11-02T06:33:10.605Z,52.70
2022-11-02T06:34:10.213Z,52.50
2022-11-02T06:35:10.212Z,52.53
2022-11-02T06:36:10.197Z,52.30
2022-11-02T06:37:10.414Z,52.53
2022-11-02T06:38:10.186Z,52.60
2022-11-02T06:39:10.163Z,52.33
2022-11-02T06:40:10.167Z,52.63
2022-11-02T06:41:10.180Z,52.80
2022-11-02T06:42:10.125Z,52.76
2022-11-02T06:43:16.549Z,52.87
2022-11-02T06:44:10.115Z,52.83
2022-11-02T06:45:10.094Z,52.70
2022-11-02T06:46:10.614Z,52.40
2022-11-02T06:47:10.091Z,53.14
2022-11-02T06:48:10.067Z,53.58
2022-11-02T06:49:10.060Z,53.93
2022-11-02T06:50:10.056Z,54.10
2022-11-02T06:51:10.190Z,54.49
2022-11-02T06:52:10.072Z,55.22
2022-11-02T06:53:10.026Z,55.70
2022-11-02T06:54:10.117Z,56.42
2022-11-02T06:55:10.004Z,56.84
2022-11-02T06:56:09.998Z,57.35
2022-11-02T06:57:09.982Z,57.75
2022-11-02T06:58:10.015Z,58.69
2022-11-02T06:59:09.980Z,59.02
2022-11-02T07:01:10.208Z,60.84
2022-11-02T07:02:10.068Z,61.10
2022-11-02T07:03:10.049Z,61.56
2022-11-02T07:04:09.957Z,61.88
2022-11-02T07:05:09.904Z,62.39
2022-11-02T07:06:14.121Z,62.77
2022-11-02T07:07:09.923Z,63.29
2022-11-02T07:08:09.869Z,64.22
2022-11-02T07:09:09.890Z,64.42
2022-11-02T07:10:09.886Z,65.38
2022-11-02T07:11:09.859Z,66.69
2022-11-02T07:12:09.885Z,67.56
2022-11-02T07:13:09.922Z,67.95
2022-11-02T07:14:09.881Z,68.85
2022-11-02T07:15:09.826Z,69.36
2022-11-02T07:16:09.831Z,70.36
2022-11-02T07:17:09.833Z,70.30
2022-11-02T07:18:09.768Z,71.39
2022-11-02T07:19:09.765Z,71.89
2022-11-02T07:20:09.752Z,72.51
2022-11-02T07:21:09.818Z,74.13
2022-11-02T07:22:09.811Z,75.13
2022-11-02T07:23:10.210Z,76.59
2022-11-02T07:24:09.753Z,77.73
2022-11-02T07:25:09.743Z,79.21
2022-11-02T07:26:09.694Z,80.05
2022-11-02T07:27:09.677Z,81.47
2022-11-02T07:28:09.752Z,82.19
2022-11-02T07:29:09.661Z,83.68
2022-11-02T07:30:09.695Z,85.05
2022-11-02T07:31:09.639Z,86.38
2022-11-02T07:32:09.639Z,88.96
2022-11-02T07:33:09.685Z,91.41
2022-11-02T07:34:14.049Z,93.05
2022-11-02T07:35:09.622Z,94.78
2022-11-02T07:36:09.590Z,96.43
2022-11-02T07:37:09.611Z,99.02
2022-11-02T07:38:09.593Z,100.82
2022-11-02T07:39:09.580Z,101.93
2022-11-02T07:40:09.591Z,103.65
2022-11-02T07:41:09.602Z,108.31
2022-11-02T07:42:09.534Z,110.68
2022-11-02T07:43:09.704Z,112.25
2022-11-02T07:44:09.509Z,115.53
2022-11-02T07:45:09.523Z,121.08
2022-11-02T07:46:09.493Z,123.42
2022-11-02T07:47:09.477Z,122.69
2022-11-02T07:48:09.488Z,129.48
2022-11-02T07:49:09.465Z,130.60
2022-11-02T07:50:09.454Z,129.98
2022-11-02T07:51:09.459Z,132.79
2022-11-02T07:52:09.472Z,135.71
2022-11-02T07:53:09.439Z,136.27
2022-11-02T07:54:09.429Z,144.31
2022-11-02T07:55:09.395Z,147.91
2022-11-02T07:56:09.466Z,155.96
2022-11-02T07:57:09.411Z,164.93
2022-11-02T07:58:09.372Z,169.47
2022-11-02T07:59:09.390Z,175.00
2022-11-02T08:00:09.357Z,184.93
2022-11-02T08:01:09.428Z,191.31
2022-11-02T08:02:09.377Z,193.46
2022-11-02T08:03:09.926Z,199.72
2022-11-02T08:04:09.447Z,202.07
2022-11-02T08:05:09.300Z,207.85
2022-11-02T08:06:09.326Z,211.21
2022-11-02T08:07:09.274Z,220.62
2022-11-02T08:08:09.480Z,229.44
2022-11-02T08:09:09.279Z,228.00
2022-11-02T08:10:09.260Z,229.60
2022-11-02T08:11:09.258Z,232.38
2022-11-02T08:12:09.234Z,238.31
2022-11-02T08:13:09.267Z,252.48
2022-11-02T08:14:09.215Z,267.79
2022-11-02T08:15:09.192Z,274.07
2022-11-02T08:16:09.234Z,286.32
2022-11-02T08:17:09.229Z,290.90
2022-11-02T08:18:09.343Z,291.94
2022-11-02T08:19:09.191Z,302.20
2022-11-02T08:20:09.149Z,320.26
2022-11-02T08:21:09.144Z,342.04
2022-11-02T08:22:09.188Z,368.24
2022-11-02T08:23:09.144Z,382.24
2022-11-02T08:24:09.111Z,381.80
2022-11-02T08:25:09.120Z,378.03
2022-11-02T08:26:09.114Z,370.75
2022-11-02T08:27:09.072Z,384.90
2022-11-02T08:28:09.089Z,378.91
2022-11-02T08:29:09.064Z,405.08
2022-11-02T08:30:09.628Z,432.23
2022-11-02T08:31:09.028Z,438.51
2022-11-02T08:32:09.094Z,454.71
2022-11-02T08:33:09.029Z,483.15
2022-11-02T08:34:13.814Z,509.85
2022-11-02T08:35:09.070Z,528.51
2022-11-02T08:36:09.650Z,553.61
2022-11-02T08:37:09.827Z,585.32
2022-11-02T08:38:09.009Z,599.04
2022-11-02T08:39:13.359Z,610.04
2022-11-02T08:40:09.037Z,636.95
2022-11-02T08:41:09.127Z,653.87
2022-11-02T08:42:08.944Z,661.03
2022-11-02T08:43:08.911Z,684.88
2022-11-02T08:44:09.366Z,688.43
2022-11-02T08:45:08.956Z,716.65
2022-11-02T08:46:14.915Z,747.19
2022-11-02T08:47:09.675Z,748.03
2022-11-02T08:48:08.978Z,752.69
2022-11-02T08:49:08.913Z,781.89
2022-11-02T08:50:08.913Z,797.36
2022-11-02T08:51:08.877Z,769.23
2022-11-02T08:52:08.969Z,738.97
2022-11-02T08:53:08.901Z,687.01
2022-11-02T08:54:09.027Z,626.14
2022-11-02T08:55:08.875Z,603.94
2022-11-02T08:56:08.799Z,563.47
2022-11-02T08:57:09.029Z,486.69
2022-11-02T08:58:08.871Z,369.07
2022-11-02T08:59:13.687Z,298.61
2022-11-02T09:00:10.425Z,259.29
2022-11-02T09:01:09.743Z,230.09
2022-11-02T09:02:08.955Z,206.15
2022-11-02T09:03:08.724Z,185.76
2022-11-02T09:04:08.833Z,174.82
2022-11-02T09:05:08.753Z,158.33
2022-11-02T09:06:08.708Z,151.41
2022-11-02T09:07:08.735Z,148.17
2022-11-02T09:08:08.859Z,143.07
2022-11-02T09:09:08.702Z,139.59
2022-11-02T09:10:08.687Z,134.07
2022-11-02T09:11:09.515Z,131.74
2022-11-02T09:12:29.737Z,128.78
2022-11-02T09:13:08.954Z,131.42
2022-11-02T09:14:09.010Z,136.05
2022-11-02T09:15:08.667Z,149.37
2022-11-02T09:16:08.871Z,153.79
2022-11-02T09:17:10.005Z,148.44
2022-11-02T09:18:08.832Z,142.46
2022-11-02T09:19:08.818Z,137.62
2022-11-02T09:20:08.623Z,131.94
2022-11-02T09:21:09.828Z,131.94
2022-11-02T09:22:08.769Z,144.69
2022-11-02T09:23:08.956Z,148.17
2022-11-02T09:24:08.753Z,144.19
2022-11-02T09:25:08.594Z,137.06
2022-11-02T09:26:08.714Z,135.60
2022-11-02T09:27:08.745Z,148.97
2022-11-02T09:28:09.119Z,152.10
2022-11-02T09:29:08.551Z,150.59
2022-11-02T09:30:08.481Z,157.43
2022-11-02T09:31:10.786Z,185.13
2022-11-02T09:32:08.574Z,224.25
2022-11-02T09:33:08.615Z,251.32
2022-11-02T09:34:08.599Z,279.70
2022-11-02T09:35:08.456Z,338.50
2022-11-02T09:36:08.504Z,435.92
2022-11-02T09:37:10.727Z,474.52
2022-11-02T09:38:08.409Z,433.92
2022-11-02T09:39:08.424Z,365.77
2022-11-02T09:40:08.725Z,438.51
2022-11-02T09:41:08.721Z,574.19
2022-11-02T09:42:08.742Z,673.09
2022-11-02T09:43:08.701Z,718.98
2022-11-02T09:44:08.459Z,786.98
2022-11-02T09:45:08.352Z,843.91
2022-11-02T09:46:08.778Z,877.31
2022-11-02T09:47:55.966Z,895.02
2022-11-02T09:48:26.741Z,940.59
2022-11-02T09:49:09.296Z,980.10
2022-11-02T09:50:09.148Z,1009.10
2022-11-02T09:51:08.266Z,1020.72
2022-11-02T09:52:08.413Z,1020.72
2022-11-02T09:53:08.494Z,1027.03
2022-11-02T09:54:11.779Z,1046.42
2022-11-02T09:55:08.279Z,1053.88
2022-11-02T09:56:08.206Z,1058.07
2022-11-02T09:57:08.186Z,1059.76
2022-11-02T09:58:08.155Z,1072.58
2022-11-02T09:59:08.227Z,1068.27
2022-11-02T10:00:08.140Z,1080.42
2022-11-02T10:01:08.130Z,1078.67
2022-11-02T10:02:08.117Z,1086.60
2022-11-02T10:03:08.163Z,1080.42
2022-11-02T10:04:08.177Z,1083.06
2022-11-02T10:05:08.092Z,1099.17
2022-11-02T10:06:08.103Z,1088.38
2022-11-02T10:07:08.875Z,1072.58
2022-11-02T10:08:08.345Z,1062.30
2022-11-02T10:09:08.074Z,1087.49
2022-11-02T10:10:08.079Z,1101.91
2022-11-02T10:11:08.477Z,1084.83
2022-11-02T10:12:08.020Z,1076.05
2022-11-02T10:13:08.169Z,1081.30
2022-11-02T10:14:08.646Z,1086.60
2022-11-02T10:15:08.006Z,1099.17
2022-11-02T10:16:07.981Z,1100.99
2022-11-02T10:17:07.970Z,1128.07
2022-11-02T10:18:08.000Z,1131.92
2022-11-02T10:19:07.943Z,1184.33
2022-11-02T10:20:07.934Z,1219.06
2022-11-02T10:21:07.977Z,1241.83
2022-11-02T10:22:07.915Z,1272.73
2022-11-02T10:23:08.137Z,1298.83
2022-11-02T10:24:07.900Z,1318.14
2022-11-02T10:25:07.946Z,1366.91
2022-11-02T10:26:08.005Z,1369.72
2022-11-02T10:27:13.013Z,1368.31
2022-11-02T10:28:07.956Z,1383.97
2022-11-02T10:29:07.904Z,1375.39
2022-11-02T10:30:07.870Z,1358.53
2022-11-02T10:31:11.766Z,1373.97
2022-11-02T10:32:07.831Z,1391.21
2022-11-02T10:33:07.876Z,1408.90
2022-11-02T10:34:07.871Z,1411.89
2022-11-02T10:35:29.921Z,1427.04
2022-11-02T10:36:23.171Z,1451.96
2022-11-02T10:37:07.822Z,1451.96
2022-11-02T10:38:13.482Z,1481.07
2022-11-02T10:39:07.779Z,1501.13
2022-11-02T10:40:07.740Z,1476.14
2022-11-02T10:41:07.742Z,1501.98
2022-11-02T10:42:07.819Z,1556.46
2022-11-02T10:43:07.761Z,1558.29
2022-11-02T10:44:07.736Z,1551.02
2022-11-02T10:45:07.706Z,1545.61
2022-11-02T10:46:07.723Z,1562.87
2022-11-02T10:47:07.884Z,1595.68
2022-11-02T10:48:07.951Z,1562.87
2022-11-02T10:49:07.645Z,1542.03
2022-11-02T10:50:12.064Z,1538.46
2022-11-02T10:51:07.638Z,1510.51
2022-11-02T10:52:07.653Z,1511.36
2022-11-02T10:53:35.296Z,1506.23
2022-11-02T10:54:07.775Z,1516.53
2022-11-02T10:55:07.640Z,1513.08
2022-11-02T10:56:07.589Z,1560.12
2022-11-02T10:57:07.577Z,1591.86
2022-11-02T10:58:08.271Z,1622.94
2022-11-02T10:59:07.613Z,1612.12
2022-11-02T11:00:07.566Z,1669.81
2022-11-02T11:01:07.755Z,1683.54
2022-11-02T11:02:07.598Z,1671.90
2022-11-02T11:03:07.644Z,1648.08
2022-11-02T11:04:07.522Z,1683.54
2022-11-02T11:05:07.541Z,1716.13
2022-11-02T11:06:07.474Z,1730.64
2022-11-02T11:07:07.462Z,1701.85
2022-11-02T11:08:07.841Z,1722.80
2022-11-02T11:09:07.500Z,1759.26
2022-11-02T11:10:07.423Z,1738.56
2022-11-02T11:11:07.425Z,1694.27
2022-11-02T11:12:07.544Z,1653.20
2022-11-02T11:13:07.799Z,1667.71
2022-11-02T11:16:08.810Z,1756.94
2022-11-02T11:20:07.651Z,1808.29
2022-11-02T11:21:07.327Z,1794.87
2022-11-02T11:22:07.312Z,1800.95
2022-11-02T11:23:07.560Z,1778.07
2022-11-02T11:24:07.339Z,1738.56
2022-11-02T11:25:07.286Z,1731.77
2022-11-02T11:26:07.373Z,1679.29
2022-11-02T11:27:07.281Z,1702.94
2022-11-02T11:28:07.571Z,1816.94
2022-11-02T11:29:07.241Z,1842.10
2022-11-02T11:30:07.240Z,1798.51
2022-11-02T11:31:07.244Z,1794.87
2022-11-02T11:32:07.319Z,1790.04
2022-11-02T11:33:07.749Z,1754.62
2022-11-02T11:34:07.232Z,1754.62
2022-11-02T11:35:07.227Z,1760.42
2022-11-02T11:36:07.186Z,1787.63
2022-11-02T11:37:07.238Z,1869.29
2022-11-02T11:38:07.474Z,1919.19
2022-11-02T11:39:07.265Z,1920.58
2022-11-02T11:40:07.269Z,1923.35
2022-11-02T11:41:07.258Z,1938.78
2022-11-02T11:42:07.147Z,1948.72
2022-11-02T11:43:07.185Z,2009.06
2022-11-02T11:44:07.138Z,1998.50
2022-11-02T11:45:07.080Z,2004.52
2022-11-02T11:46:07.397Z,2007.55
2022-11-02T11:47:07.061Z,2016.68
2022-11-02T11:48:07.423Z,2070.04
2022-11-02T11:49:07.092Z,2065.22
2022-11-02T11:50:12.342Z,2057.23
2022-11-02T11:51:07.134Z,2065.22
2022-11-02T11:52:07.148Z,2050.89
2022-11-02T11:53:07.371Z,2063.61
2022-11-02T11:54:06.999Z,2044.58
2022-11-02T11:55:07.016Z,2055.64
2022-11-02T11:56:07.009Z,2068.43
2022-11-02T11:57:07.015Z,2024.35
2022-11-02T11:58:07.410Z,2038.31
2022-11-02T11:59:06.942Z,2010.58
2022-11-02T12:00:06.933Z,2018.21
2022-11-02T12:01:10.194Z,2070.04
2022-11-02T12:02:07.062Z,2036.75
2022-11-02T12:03:07.667Z,1989.53
2022-11-02T12:04:06.935Z,1988.04
2022-11-02T12:05:06.993Z,2024.35
2022-11-02T12:06:06.872Z,2047.73
2022-11-02T12:07:06.869Z,2018.21
2022-11-02T12:08:07.332Z,1976.22
2022-11-02T12:09:06.891Z,1948.72
2022-11-02T12:10:06.822Z,1913.67
2022-11-02T12:11:06.931Z,1881.19
2022-11-02T12:12:06.801Z,1921.96
2022-11-02T12:13:07.330Z,1960.21
2022-11-02T12:14:06.778Z,1998.50
2022-11-02T12:15:07.260Z,2024.35
2022-11-02T12:16:06.816Z,2024.35
2022-11-02T12:17:06.761Z,2089.55
2022-11-02T12:18:07.154Z,2092.84
2022-11-02T12:19:06.727Z,2074.88
2022-11-02T12:20:06.741Z,2066.82
2022-11-02T12:21:06.736Z,2030.53
2022-11-02T12:22:06.802Z,2046.15
2022-11-02T12:23:07.127Z,2004.52
2022-11-02T12:24:06.753Z,2021.28
2022-11-02T12:25:06.718Z,2092.84
2022-11-02T12:26:06.661Z,2112.79
2022-11-02T12:27:06.704Z,2183.91
2022-11-02T12:28:06.673Z,2198.35
2022-11-02T12:29:06.669Z,2214.82
2022-11-02T12:30:06.740Z,2224.08
2022-11-02T12:31:06.689Z,2246.62
2022-11-02T12:32:06.604Z,2258.06
2022-11-02T12:33:07.030Z,2212.98
2022-11-02T12:34:06.579Z,2224.08
2022-11-02T12:35:27.730Z,2263.83
2022-11-02T12:36:06.574Z,2317.07
2022-11-02T12:38:07.644Z,2293.10
2022-11-02T12:39:06.627Z,2252.33
2022-11-02T12:40:06.522Z,2267.69
2022-11-02T12:41:06.555Z,2303.03
2022-11-02T12:42:06.569Z,2283.26
2022-11-02T12:43:06.924Z,2235.29
2022-11-02T12:44:06.544Z,2176.76